AEE336 LGAV-LGSA
Flight info
| Callsign | AEE336 |
|---|---|
| Flight time | 0h 30m |
| Altitude | 21000 |
| Route | KEA L617 MIL Y144 RUSOS |
| Aircraft | A320/M-SDE3FGHIRWY/LB1 |
Departure
| Time | 2026-05-05 16:25 |
|---|---|
| Airport | Athens Eleftherios Venizelos International Airport (LGAV) |
Arrival
| Time | 2026-05-05 16:56 |
|---|---|
| Airport | Chania International Airport (LGSA) |
| Time | Latitude | Longitude | Altitude | Speed | Heading |
|---|---|---|---|---|---|
| 2026-05-05 15:59 | 37.94071 | 23.95205 | 302 ft | 0 kts | 39° |
| 2026-05-05 16:17 | 37.94050 | 23.95183 | 303 ft | 3 kts | 39° |
| 2026-05-05 16:17 | 37.94034 | 23.95166 | 302 ft | 4 kts | 40° |
| 2026-05-05 16:18 | 37.94026 | 23.95121 | 301 ft | 4 kts | 126° |
| 2026-05-05 16:18 | 37.94030 | 23.95115 | 302 ft | 1 kts | 126° |
| 2026-05-05 16:20 | 37.93999 | 23.95168 | 301 ft | 8 kts | 126° |
| 2026-05-05 16:20 | 37.93910 | 23.95321 | 300 ft | 14 kts | 126° |
| 2026-05-05 16:21 | 37.93922 | 23.95539 | 299 ft | 18 kts | 36° |
| 2026-05-05 16:22 | 37.94268 | 23.95868 | 297 ft | 23 kts | 36° |
| 2026-05-05 16:22 | 37.94540 | 23.96126 | 300 ft | 26 kts | 37° |
| 2026-05-05 16:23 | 37.94840 | 23.96410 | 302 ft | 28 kts | 37° |
| 2026-05-05 16:23 | 37.94997 | 23.96558 | 303 ft | 28 kts | 37° |
| 2026-05-05 16:23 | 37.95293 | 23.96845 | 304 ft | 15 kts | 53° |
| 2026-05-05 16:24 | 37.95262 | 23.96955 | 307 ft | 14 kts | 127° |
| 2026-05-05 16:24 | 37.95215 | 23.97029 | 310 ft | 8 kts | 139° |
| 2026-05-05 16:24 | 37.95027 | 23.96866 | 309 ft | 57 kts | 217° |
| 2026-05-05 16:25 | 37.94525 | 23.96390 | 296 ft | 121 kts | 217° |
| 2026-05-05 16:25 | 37.92722 | 23.94722 | 727 ft | 177 kts | 210° |
| 2026-05-05 16:25 | 37.91644 | 23.93986 | 1457 ft | 174 kts | 208° |
| 2026-05-05 16:26 | 37.89317 | 23.92448 | 2189 ft | 210 kts | 209° |
| 2026-05-05 16:26 | 37.86507 | 23.90563 | 3108 ft | 244 kts | 209° |
| 2026-05-05 16:27 | 37.84985 | 23.89537 | 3908 ft | 252 kts | 208° |
| 2026-05-05 16:27 | 37.83243 | 23.88895 | 4504 ft | 272 kts | 182° |
| 2026-05-05 16:27 | 37.81358 | 23.89331 | 5290 ft | 281 kts | 161° |
| 2026-05-05 16:27 | 37.79465 | 23.90038 | 6146 ft | 286 kts | 166° |
| 2026-05-05 16:28 | 37.77538 | 23.90616 | 6967 ft | 291 kts | 168° |
| 2026-05-05 16:28 | 37.75542 | 23.91160 | 7797 ft | 295 kts | 168° |
| 2026-05-05 16:28 | 37.73517 | 23.91706 | 8653 ft | 299 kts | 168° |
| 2026-05-05 16:28 | 37.71472 | 23.92277 | 9512 ft | 302 kts | 168° |
| 2026-05-05 16:29 | 37.69406 | 23.92872 | 10275 ft | 308 kts | 167° |
| 2026-05-05 16:29 | 37.67234 | 23.93514 | 10538 ft | 331 kts | 167° |
| 2026-05-05 16:29 | 37.64921 | 23.94207 | 10822 ft | 350 kts | 167° |
| 2026-05-05 16:29 | 37.62523 | 23.94932 | 11417 ft | 357 kts | 166° |
| 2026-05-05 16:30 | 37.60090 | 23.95669 | 12084 ft | 362 kts | 166° |
| 2026-05-05 16:30 | 37.57625 | 23.96412 | 12745 ft | 366 kts | 166° |
| 2026-05-05 16:30 | 37.55133 | 23.97156 | 13419 ft | 371 kts | 166° |
| 2026-05-05 16:30 | 37.52607 | 23.97907 | 14054 ft | 375 kts | 166° |
| 2026-05-05 16:31 | 37.50051 | 23.98664 | 14627 ft | 379 kts | 166° |
| 2026-05-05 16:31 | 37.47464 | 23.99435 | 15173 ft | 384 kts | 166° |
| 2026-05-05 16:31 | 37.44847 | 24.00217 | 15734 ft | 388 kts | 167° |
| 2026-05-05 16:31 | 37.42203 | 24.01010 | 16295 ft | 393 kts | 167° |
| 2026-05-05 16:32 | 37.39527 | 24.01811 | 16852 ft | 397 kts | 167° |
| 2026-05-05 16:32 | 37.36859 | 24.02605 | 17404 ft | 401 kts | 167° |
| 2026-05-05 16:32 | 37.34128 | 24.03418 | 17955 ft | 406 kts | 167° |
| 2026-05-05 16:32 | 37.31367 | 24.04241 | 18493 ft | 410 kts | 168° |
| 2026-05-05 16:33 | 37.28577 | 24.05073 | 18978 ft | 414 kts | 168° |
| 2026-05-05 16:33 | 37.25764 | 24.05911 | 19472 ft | 418 kts | 168° |
| 2026-05-05 16:33 | 37.22920 | 24.06754 | 19976 ft | 422 kts | 168° |
| 2026-05-05 16:33 | 37.20052 | 24.07600 | 20475 ft | 426 kts | 168° |
| 2026-05-05 16:34 | 37.17152 | 24.08454 | 20905 ft | 430 kts | 168° |
| 2026-05-05 16:34 | 37.14233 | 24.09317 | 21032 ft | 432 kts | 168° |
| 2026-05-05 16:34 | 37.11300 | 24.10190 | 21060 ft | 434 kts | 168° |
| 2026-05-05 16:34 | 37.08362 | 24.11066 | 21052 ft | 434 kts | 168° |
| 2026-05-05 16:35 | 37.05420 | 24.11943 | 21058 ft | 434 kts | 168° |
| 2026-05-05 16:35 | 37.02484 | 24.12814 | 21047 ft | 434 kts | 169° |
| 2026-05-05 16:35 | 36.99585 | 24.13667 | 21065 ft | 434 kts | 169° |
| 2026-05-05 16:35 | 36.96643 | 24.14531 | 21061 ft | 434 kts | 169° |
| 2026-05-05 16:36 | 36.93707 | 24.15392 | 21062 ft | 434 kts | 169° |
| 2026-05-05 16:36 | 36.90770 | 24.16251 | 21069 ft | 434 kts | 169° |
| 2026-05-05 16:36 | 36.87833 | 24.17111 | 21062 ft | 434 kts | 169° |
| 2026-05-05 16:36 | 36.84884 | 24.17975 | 21069 ft | 434 kts | 169° |
| 2026-05-05 16:37 | 36.81947 | 24.18840 | 21069 ft | 434 kts | 169° |
| 2026-05-05 16:37 | 36.79960 | 24.19427 | 21064 ft | 434 kts | 169° |
| 2026-05-05 16:37 | 36.77062 | 24.20283 | 21061 ft | 434 kts | 169° |
| 2026-05-05 16:37 | 36.74121 | 24.21149 | 21068 ft | 434 kts | 169° |
| 2026-05-05 16:38 | 36.71179 | 24.22009 | 21072 ft | 434 kts | 169° |
| 2026-05-05 16:38 | 36.68238 | 24.22865 | 21068 ft | 435 kts | 169° |
| 2026-05-05 16:38 | 36.65290 | 24.23722 | 21069 ft | 435 kts | 169° |
| 2026-05-05 16:38 | 36.62348 | 24.24581 | 21072 ft | 435 kts | 169° |
| 2026-05-05 16:39 | 36.59402 | 24.25441 | 21080 ft | 435 kts | 169° |
| 2026-05-05 16:39 | 36.56456 | 24.26300 | 21076 ft | 435 kts | 169° |
| 2026-05-05 16:39 | 36.53515 | 24.27160 | 21076 ft | 435 kts | 169° |
| 2026-05-05 16:39 | 36.50570 | 24.28019 | 21075 ft | 435 kts | 169° |
| 2026-05-05 16:40 | 36.47625 | 24.28876 | 21078 ft | 435 kts | 169° |
| 2026-05-05 16:40 | 36.44677 | 24.29732 | 21078 ft | 435 kts | 169° |
| 2026-05-05 16:40 | 36.41729 | 24.30588 | 21059 ft | 433 kts | 169° |
| 2026-05-05 16:40 | 36.38830 | 24.31432 | 20808 ft | 423 kts | 169° |
| 2026-05-05 16:41 | 36.35996 | 24.32253 | 20556 ft | 413 kts | 169° |
| 2026-05-05 16:41 | 36.33217 | 24.33056 | 20307 ft | 407 kts | 169° |
| 2026-05-05 16:41 | 36.30464 | 24.33852 | 20055 ft | 405 kts | 169° |
| 2026-05-05 16:41 | 36.27726 | 24.34645 | 19820 ft | 403 kts | 169° |
| 2026-05-05 16:42 | 36.24996 | 24.35433 | 19579 ft | 402 kts | 169° |
| 2026-05-05 16:42 | 36.22266 | 24.36062 | 19324 ft | 396 kts | 178° |
| 2026-05-05 16:42 | 36.19545 | 24.36105 | 18910 ft | 388 kts | 189° |
| 2026-05-05 16:42 | 36.16905 | 24.35551 | 18454 ft | 382 kts | 198° |
| 2026-05-05 16:43 | 36.14318 | 24.34801 | 17949 ft | 381 kts | 197° |
| 2026-05-05 16:43 | 36.11749 | 24.34069 | 17490 ft | 377 kts | 197° |
| 2026-05-05 16:43 | 36.09204 | 24.33355 | 17042 ft | 374 kts | 197° |
| 2026-05-05 16:43 | 36.06670 | 24.32649 | 16591 ft | 371 kts | 197° |
| 2026-05-05 16:44 | 36.04164 | 24.31951 | 16144 ft | 368 kts | 197° |
| 2026-05-05 16:44 | 36.01677 | 24.31256 | 15696 ft | 365 kts | 197° |
| 2026-05-05 16:44 | 35.99207 | 24.30564 | 15249 ft | 363 kts | 196° |
| 2026-05-05 16:44 | 35.96753 | 24.29874 | 14790 ft | 361 kts | 196° |
| 2026-05-05 16:45 | 35.94343 | 24.29196 | 14336 ft | 359 kts | 196° |
| 2026-05-05 16:45 | 35.91909 | 24.28514 | 13869 ft | 358 kts | 196° |
| 2026-05-05 16:45 | 35.89487 | 24.27838 | 13387 ft | 355 kts | 196° |
| 2026-05-05 16:45 | 35.87085 | 24.27167 | 12937 ft | 352 kts | 195° |
| 2026-05-05 16:46 | 35.84704 | 24.26502 | 12490 ft | 350 kts | 195° |
| 2026-05-05 16:46 | 35.82339 | 24.25841 | 12050 ft | 347 kts | 195° |
| 2026-05-05 16:46 | 35.79959 | 24.25176 | 11600 ft | 345 kts | 195° |
| 2026-05-05 16:46 | 35.77648 | 24.24531 | 11168 ft | 344 kts | 195° |
| 2026-05-05 16:47 | 35.75279 | 24.24176 | 10720 ft | 345 kts | 176° |
| 2026-05-05 16:47 | 35.72969 | 24.24919 | 10193 ft | 346 kts | 150° |
| 2026-05-05 16:47 | 35.71159 | 24.26684 | 10034 ft | 320 kts | 127° |
| 2026-05-05 16:47 | 35.69985 | 24.28900 | 9628 ft | 304 kts | 116° |
| 2026-05-05 16:48 | 35.68887 | 24.31084 | 9382 ft | 300 kts | 121° |
| 2026-05-05 16:48 | 35.67629 | 24.33170 | 8972 ft | 304 kts | 127° |
| 2026-05-05 16:48 | 35.66212 | 24.35074 | 8695 ft | 301 kts | 133° |
| 2026-05-05 16:48 | 35.64653 | 24.36772 | 8262 ft | 298 kts | 140° |
| 2026-05-05 16:49 | 35.62962 | 24.38247 | 7653 ft | 297 kts | 146° |
| 2026-05-05 16:49 | 35.61166 | 24.39485 | 7084 ft | 295 kts | 152° |
| 2026-05-05 16:49 | 35.59287 | 24.40484 | 6499 ft | 294 kts | 158° |
| 2026-05-05 16:49 | 35.57353 | 24.41238 | 5987 ft | 289 kts | 165° |
| 2026-05-05 16:50 | 35.55397 | 24.41741 | 5410 ft | 286 kts | 171° |
| 2026-05-05 16:50 | 35.53434 | 24.41993 | 4899 ft | 281 kts | 178° |
| 2026-05-05 16:50 | 35.51507 | 24.42013 | 4408 ft | 274 kts | 184° |
| 2026-05-05 16:50 | 35.49615 | 24.41811 | 3960 ft | 272 kts | 189° |
| 2026-05-05 16:51 | 35.47747 | 24.41389 | 3495 ft | 272 kts | 196° |
| 2026-05-05 16:51 | 35.46121 | 24.40383 | 3044 ft | 258 kts | 228° |
| 2026-05-05 16:51 | 35.45372 | 24.38524 | 2835 ft | 237 kts | 268° |
| 2026-05-05 16:51 | 35.45643 | 24.36622 | 2773 ft | 221 kts | 290° |
| 2026-05-05 16:52 | 35.46214 | 24.34928 | 2680 ft | 210 kts | 295° |
| 2026-05-05 16:52 | 35.46815 | 24.33346 | 2580 ft | 200 kts | 296° |
| 2026-05-05 16:52 | 35.47388 | 24.31828 | 2500 ft | 192 kts | 295° |
| 2026-05-05 16:52 | 35.47914 | 24.30398 | 2424 ft | 177 kts | 295° |
| 2026-05-05 16:53 | 35.48388 | 24.29070 | 2324 ft | 163 kts | 295° |
| 2026-05-05 16:53 | 35.48823 | 24.27834 | 2204 ft | 152 kts | 294° |
| 2026-05-05 16:53 | 35.49234 | 24.26693 | 2133 ft | 140 kts | 294° |
| 2026-05-05 16:53 | 35.49628 | 24.25614 | 1981 ft | 136 kts | 294° |
| 2026-05-05 16:54 | 35.49988 | 24.24551 | 1804 ft | 134 kts | 294° |
| 2026-05-05 16:54 | 35.50344 | 24.23492 | 1623 ft | 134 kts | 293° |
| 2026-05-05 16:54 | 35.50695 | 24.22436 | 1436 ft | 133 kts | 292° |
| 2026-05-05 16:54 | 35.51049 | 24.21383 | 1261 ft | 134 kts | 293° |
| 2026-05-05 16:55 | 35.51409 | 24.20331 | 1085 ft | 133 kts | 292° |
| 2026-05-05 16:55 | 35.51754 | 24.19296 | 928 ft | 133 kts | 292° |
| 2026-05-05 16:55 | 35.52104 | 24.18251 | 742 ft | 132 kts | 293° |
| 2026-05-05 16:55 | 35.52445 | 24.17205 | 585 ft | 132 kts | 292° |
| 2026-05-05 16:56 | 35.52778 | 24.16180 | 500 ft | 119 kts | 292° |
| 2026-05-05 16:56 | 35.53028 | 24.15415 | 483 ft | 71 kts | 292° |
| 2026-05-05 16:56 | 35.53159 | 24.15011 | 490 ft | 36 kts | 292° |
| 2026-05-05 16:56 | 35.53249 | 24.14743 | 487 ft | 33 kts | 292° |
| 2026-05-05 16:57 | 35.53327 | 24.14494 | 493 ft | 30 kts | 291° |
| 2026-05-05 16:57 | 35.53397 | 24.14284 | 490 ft | 17 kts | 298° |
| 2026-05-05 16:57 | 35.53491 | 24.14291 | 498 ft | 15 kts | 26° |
| 2026-05-05 16:57 | 35.53596 | 24.14343 | 495 ft | 18 kts | 20° |
| 2026-05-05 16:58 | 35.53690 | 24.14337 | 496 ft | 11 kts | 296° |
| 2026-05-05 16:58 | 35.53721 | 24.14235 | 498 ft | 14 kts | 291° |
| 2026-05-05 16:58 | 35.53760 | 24.14115 | 494 ft | 16 kts | 291° |
| 2026-05-05 16:58 | 35.53798 | 24.13998 | 490 ft | 5 kts | 291° |
| 2026-05-05 16:59 | 35.53833 | 24.13991 | 497 ft | 7 kts | 18° |
| 2026-05-05 16:59 | 35.53871 | 24.14009 | 498 ft | 4 kts | 21° |
| 2026-05-05 16:59 | 35.53884 | 24.14016 | 496 ft | 0 kts | 21° |